sensor_id;sensor_type;location;lat;lon;timestamp;P1;durP1;ratioP1;P2;durP2;ratioP2
23432;SDS011;41331;45.412;10.992;2024-02-26T00:01:34;157.20;;;146.70;;
23432;SDS011;41331;45.412;10.992;2024-02-26T00:04:02;163.98;;;152.98;;
23432;SDS011;41331;45.412;10.992;2024-02-26T00:06:30;334.92;;;306.73;;
23432;SDS011;41331;45.412;10.992;2024-02-26T00:08:59;342.63;;;314.48;;
23432;SDS011;41331;45.412;10.992;2024-02-26T00:11:28;146.13;;;136.45;;
23432;SDS011;41331;45.412;10.992;2024-02-26T00:13:56;158.43;;;148.02;;
23432;SDS011;41331;45.412;10.992;2024-02-26T00:16:24;180.85;;;168.25;;
23432;SDS011;41331;45.412;10.992;2024-02-26T00:18:52;317.05;;;293.65;;
23432;SDS011;41331;45.412;10.992;2024-02-26T00:21:19;310.13;;;285.83;;
23432;SDS011;41331;45.412;10.992;2024-02-26T00:23:49;176.82;;;165.02;;
23432;SDS011;41331;45.412;10.992;2024-02-26T00:26:17;164.48;;;153.88;;
23432;SDS011;41331;45.412;10.992;2024-02-26T00:28:45;124.20;;;116.25;;
23432;SDS011;41331;45.412;10.992;2024-02-26T00:31:13;108.47;;;101.50;;
23432;SDS011;41331;45.412;10.992;2024-02-26T00:33:41;111.88;;;104.43;;
23432;SDS011;41331;45.412;10.992;2024-02-26T00:36:08;110.90;;;103.90;;
23432;SDS011;41331;45.412;10.992;2024-02-26T00:38:36;128.23;;;120.03;;
23432;SDS011;41331;45.412;10.992;2024-02-26T00:41:04;124.78;;;116.60;;
23432;SDS011;41331;45.412;10.992;2024-02-26T00:43:32;178.40;;;166.35;;
23432;SDS011;41331;45.412;10.992;2024-02-26T00:46:17;167.85;;;157.07;;
23432;SDS011;41331;45.412;10.992;2024-02-26T00:48:45;196.75;;;183.50;;
23432;SDS011;41331;45.412;10.992;2024-02-26T00:51:12;166.00;;;155.50;;
23432;SDS011;41331;45.412;10.992;2024-02-26T00:53:40;153.45;;;143.65;;
23432;SDS011;41331;45.412;10.992;2024-02-26T00:56:08;280.42;;;260.77;;
23432;SDS011;41331;45.412;10.992;2024-02-26T00:58:36;249.95;;;232.20;;
23432;SDS011;41331;45.412;10.992;2024-02-26T01:01:04;382.13;;;350.00;;
23432;SDS011;41331;45.412;10.992;2024-02-26T01:03:31;372.88;;;342.50;;
23432;SDS011;41331;45.412;10.992;2024-02-26T01:06:00;325.85;;;301.55;;
23432;SDS011;41331;45.412;10.992;2024-02-26T01:08:28;330.00;;;304.90;;
23432;SDS011;41331;45.412;10.992;2024-02-26T01:10:56;260.45;;;242.70;;
23432;SDS011;41331;45.412;10.992;2024-02-26T01:13:23;373.33;;;343.05;;
23432;SDS011;41331;45.412;10.992;2024-02-26T01:15:51;379.05;;;346.30;;
23432;SDS011;41331;45.412;10.992;2024-02-26T01:18:19;188.83;;;176.97;;
23432;SDS011;41331;45.412;10.992;2024-02-26T01:20:47;211.52;;;197.32;;
23432;SDS011;41331;45.412;10.992;2024-02-26T01:23:15;379.48;;;346.67;;
23432;SDS011;41331;45.412;10.992;2024-02-26T01:25:43;419.08;;;373.30;;
23432;SDS011;41331;45.412;10.992;2024-02-26T01:28:11;257.63;;;239.98;;
23432;SDS011;41331;45.412;10.992;2024-02-26T01:30:38;241.70;;;225.27;;
23432;SDS011;41331;45.412;10.992;2024-02-26T01:33:06;294.77;;;273.33;;
23432;SDS011;41331;45.412;10.992;2024-02-26T01:35:34;257.83;;;239.95;;
23432;SDS011;41331;45.412;10.992;2024-02-26T01:38:02;264.02;;;245.77;;
23432;SDS011;41331;45.412;10.992;2024-02-26T01:40:30;366.23;;;335.63;;
23432;SDS011;41331;45.412;10.992;2024-02-26T01:42:59;397.00;;;362.90;;
23432;SDS011;41331;45.412;10.992;2024-02-26T01:45:27;348.05;;;319.70;;
23432;SDS011;41331;45.412;10.992;2024-02-26T01:47:56;426.52;;;379.73;;
23432;SDS011;41331;45.412;10.992;2024-02-26T01:50:25;466.08;;;364.40;;
23432;SDS011;41331;45.412;10.992;2024-02-26T01:52:53;487.73;;;375.45;;
23432;SDS011;41331;45.412;10.992;2024-02-26T01:55:23;492.67;;;371.65;;
23432;SDS011;41331;45.412;10.992;2024-02-26T01:57:53;337.10;;;310.85;;
23432;SDS011;41331;45.412;10.992;2024-02-26T02:00:25;255.30;;;237.77;;
23432;SDS011;41331;45.412;10.992;2024-02-26T02:02:53;250.25;;;233.10;;
23432;SDS011;41331;45.412;10.992;2024-02-26T02:05:22;296.20;;;274.42;;
23432;SDS011;41331;45.412;10.992;2024-02-26T02:07:52;398.17;;;359.98;;
23432;SDS011;41331;45.412;10.992;2024-02-26T02:10:21;378.33;;;344.77;;
23432;SDS011;41331;45.412;10.992;2024-02-26T02:12:53;275.70;;;256.42;;
23432;SDS011;41331;45.412;10.992;2024-02-26T02:15:24;283.13;;;262.40;;
23432;SDS011;41331;45.412;10.992;2024-02-26T02:17:52;412.48;;;373.38;;
23432;SDS011;41331;45.412;10.992;2024-02-26T02:20:24;331.63;;;306.08;;
23432;SDS011;41331;45.412;10.992;2024-02-26T02:23:02;383.65;;;349.50;;
23432;SDS011;41331;45.412;10.992;2024-02-26T02:25:30;307.23;;;284.45;;
23432;SDS011;41331;45.412;10.992;2024-02-26T02:27:58;273.88;;;254.93;;
23432;SDS011;41331;45.412;10.992;2024-02-26T02:30:28;164.43;;;153.75;;
23432;SDS011;41331;45.412;10.992;2024-02-26T02:32:57;205.35;;;191.90;;
23432;SDS011;41331;45.412;10.992;2024-02-26T02:35:29;183.48;;;171.60;;
23432;SDS011;41331;45.412;10.992;2024-02-26T02:37:57;175.52;;;163.82;;
23432;SDS011;41331;45.412;10.992;2024-02-26T02:40:26;177.10;;;165.70;;
23432;SDS011;41331;45.412;10.992;2024-02-26T02:42:54;193.02;;;179.98;;
23432;SDS011;41331;45.412;10.992;2024-02-26T02:45:22;154.85;;;145.10;;
23432;SDS011;41331;45.412;10.992;2024-02-26T02:47:53;247.40;;;230.77;;
23432;SDS011;41331;45.412;10.992;2024-02-26T02:50:22;253.20;;;235.43;;
23432;SDS011;41331;45.412;10.992;2024-02-26T02:52:50;312.92;;;289.88;;
23432;SDS011;41331;45.412;10.992;2024-02-26T02:55:19;394.02;;;354.67;;
23432;SDS011;41331;45.412;10.992;2024-02-26T02:57:50;461.15;;;370.48;;
23432;SDS011;41331;45.412;10.992;2024-02-26T03:00:22;368.75;;;337.73;;
23432;SDS011;41331;45.412;10.992;2024-02-26T03:02:53;310.33;;;286.73;;
23432;SDS011;41331;45.412;10.992;2024-02-26T03:05:21;382.30;;;346.20;;
23432;SDS011;41331;45.412;10.992;2024-02-26T03:07:49;382.52;;;343.63;;
23432;SDS011;41331;45.412;10.992;2024-02-26T03:10:18;331.95;;;305.83;;
23432;SDS011;41331;45.412;10.992;2024-02-26T03:12:47;454.00;;;338.20;;
23432;SDS011;41331;45.412;10.992;2024-02-26T03:15:15;481.75;;;350.48;;
23432;SDS011;41331;45.412;10.992;2024-02-26T03:17:43;426.17;;;345.92;;
23432;SDS011;41331;45.412;10.992;2024-02-26T03:20:11;553.42;;;341.52;;
23432;SDS011;41331;45.412;10.992;2024-02-26T03:22:39;205.10;;;190.93;;
23432;SDS011;41331;45.412;10.992;2024-02-26T03:25:07;258.92;;;239.95;;
23432;SDS011;41331;45.412;10.992;2024-02-26T03:27:36;293.42;;;271.17;;
23432;SDS011;41331;45.412;10.992;2024-02-26T03:30:04;176.20;;;164.30;;
23432;SDS011;41331;45.412;10.992;2024-02-26T03:32:33;309.00;;;285.27;;
23432;SDS011;41331;45.412;10.992;2024-02-26T03:35:03;584.92;;;346.48;;
23432;SDS011;41331;45.412;10.992;2024-02-26T03:37:32;341.17;;;310.98;;
23432;SDS011;41331;45.412;10.992;2024-02-26T03:40:00;222.32;;;206.65;;
23432;SDS011;41331;45.412;10.992;2024-02-26T03:42:29;348.75;;;318.27;;
23432;SDS011;41331;45.412;10.992;2024-02-26T03:44:57;356.73;;;324.27;;
23432;SDS011;41331;45.412;10.992;2024-02-26T03:47:25;455.40;;;336.15;;
23432;SDS011;41331;45.412;10.992;2024-02-26T03:49:53;276.38;;;253.77;;
23432;SDS011;41331;45.412;10.992;2024-02-26T03:52:21;173.25;;;161.63;;
23432;SDS011;41331;45.412;10.992;2024-02-26T03:54:49;244.48;;;227.02;;
23432;SDS011;41331;45.412;10.992;2024-02-26T03:57:17;322.70;;;294.40;;
23432;SDS011;41331;45.412;10.992;2024-02-26T03:59:44;261.52;;;241.10;;
23432;SDS011;41331;45.412;10.992;2024-02-26T04:02:12;315.00;;;288.33;;
23432;SDS011;41331;45.412;10.992;2024-02-26T04:04:40;133.10;;;124.57;;
23432;SDS011;41331;45.412;10.992;2024-02-26T04:07:08;118.68;;;110.88;;
23432;SDS011;41331;45.412;10.992;2024-02-26T04:09:36;127.15;;;118.88;;
23432;SDS011;41331;45.412;10.992;2024-02-26T04:12:04;53.33;;;49.65;;
23432;SDS011;41331;45.412;10.992;2024-02-26T04:14:32;75.40;;;70.57;;
23432;SDS011;41331;45.412;10.992;2024-02-26T04:17:00;85.85;;;80.40;;
23432;SDS011;41331;45.412;10.992;2024-02-26T04:19:28;99.97;;;93.45;;
23432;SDS011;41331;45.412;10.992;2024-02-26T04:21:56;119.70;;;111.68;;
23432;SDS011;41331;45.412;10.992;2024-02-26T04:24:27;101.45;;;94.90;;
23432;SDS011;41331;45.412;10.992;2024-02-26T04:26:55;80.03;;;74.82;;
23432;SDS011;41331;45.412;10.992;2024-02-26T04:29:23;42.85;;;39.90;;
23432;SDS011;41331;45.412;10.992;2024-02-26T04:31:51;81.72;;;76.40;;
23432;SDS011;41331;45.412;10.992;2024-02-26T04:34:18;72.20;;;67.28;;
23432;SDS011;41331;45.412;10.992;2024-02-26T04:36:47;83.63;;;78.10;;
23432;SDS011;41331;45.412;10.992;2024-02-26T04:39:15;79.88;;;74.55;;
23432;SDS011;41331;45.412;10.992;2024-02-26T04:41:44;88.35;;;82.75;;
23432;SDS011;41331;45.412;10.992;2024-02-26T04:44:12;97.13;;;90.78;;
23432;SDS011;41331;45.412;10.992;2024-02-26T04:46:40;91.65;;;85.72;;
23432;SDS011;41331;45.412;10.992;2024-02-26T04:49:08;75.85;;;70.82;;
23432;SDS011;41331;45.412;10.992;2024-02-26T04:51:37;90.68;;;84.63;;
23432;SDS011;41331;45.412;10.992;2024-02-26T04:54:05;67.53;;;63.00;;
23432;SDS011;41331;45.412;10.992;2024-02-26T04:56:33;65.72;;;61.40;;
23432;SDS011;41331;45.412;10.992;2024-02-26T04:59:01;69.68;;;65.13;;
23432;SDS011;41331;45.412;10.992;2024-02-26T05:01:31;70.00;;;65.40;;
23432;SDS011;41331;45.412;10.992;2024-02-26T05:03:59;73.13;;;68.28;;
23432;SDS011;41331;45.412;10.992;2024-02-26T05:06:27;79.45;;;74.15;;
23432;SDS011;41331;45.412;10.992;2024-02-26T05:08:55;77.45;;;72.60;;
23432;SDS011;41331;45.412;10.992;2024-02-26T05:11:23;73.45;;;68.75;;
23432;SDS011;41331;45.412;10.992;2024-02-26T05:13:51;81.68;;;76.45;;
23432;SDS011;41331;45.412;10.992;2024-02-26T05:16:19;83.90;;;78.35;;
23432;SDS011;41331;45.412;10.992;2024-02-26T05:18:48;68.38;;;63.95;;
23432;SDS011;41331;45.412;10.992;2024-02-26T05:21:16;122.43;;;114.50;;
23432;SDS011;41331;45.412;10.992;2024-02-26T05:23:44;163.05;;;152.18;;
23432;SDS011;41331;45.412;10.992;2024-02-26T05:26:18;142.48;;;132.95;;
23432;SDS011;41331;45.412;10.992;2024-02-26T05:28:47;183.00;;;170.55;;
23432;SDS011;41331;45.412;10.992;2024-02-26T05:31:15;127.15;;;118.90;;
23432;SDS011;41331;45.412;10.992;2024-02-26T05:33:44;109.15;;;102.22;;
23432;SDS011;41331;45.412;10.992;2024-02-26T05:36:21;165.15;;;153.23;;
23432;SDS011;41331;45.412;10.992;2024-02-26T05:38:52;195.93;;;181.65;;
23432;SDS011;41331;45.412;10.992;2024-02-26T05:41:20;210.90;;;195.70;;
23432;SDS011;41331;45.412;10.992;2024-02-26T05:43:51;200.38;;;186.38;;
23432;SDS011;41331;45.412;10.992;2024-02-26T05:46:20;269.25;;;249.52;;
23432;SDS011;41331;45.412;10.992;2024-02-26T05:48:49;190.88;;;177.50;;
23432;SDS011;41331;45.412;10.992;2024-02-26T05:51:20;119.57;;;111.97;;
23432;SDS011;41331;45.412;10.992;2024-02-26T05:53:48;121.03;;;113.32;;
23432;SDS011;41331;45.412;10.992;2024-02-26T05:56:22;149.43;;;139.38;;
23432;SDS011;41331;45.412;10.992;2024-02-26T05:58:50;173.82;;;162.18;;
23432;SDS011;41331;45.412;10.992;2024-02-26T06:01:19;102.50;;;95.90;;
23432;SDS011;41331;45.412;10.992;2024-02-26T06:03:47;167.45;;;156.70;;
23432;SDS011;41331;45.412;10.992;2024-02-26T06:06:15;241.45;;;223.65;;
23432;SDS011;41331;45.412;10.992;2024-02-26T06:08:43;192.75;;;178.77;;
23432;SDS011;41331;45.412;10.992;2024-02-26T06:11:11;117.93;;;109.95;;
23432;SDS011;41331;45.412;10.992;2024-02-26T06:13:39;160.88;;;150.25;;
23432;SDS011;41331;45.412;10.992;2024-02-26T06:16:10;205.25;;;190.93;;
23432;SDS011;41331;45.412;10.992;2024-02-26T06:18:38;214.87;;;199.20;;
23432;SDS011;41331;45.412;10.992;2024-02-26T06:21:08;270.05;;;248.77;;
23432;SDS011;41331;45.412;10.992;2024-02-26T06:23:40;276.00;;;254.20;;
23432;SDS011;41331;45.412;10.992;2024-02-26T06:26:08;146.65;;;137.10;;
23432;SDS011;41331;45.412;10.992;2024-02-26T06:28:37;159.98;;;148.95;;
23432;SDS011;41331;45.412;10.992;2024-02-26T06:31:08;146.55;;;136.60;;
23432;SDS011;41331;45.412;10.992;2024-02-26T06:33:36;138.90;;;129.38;;
23432;SDS011;41331;45.412;10.992;2024-02-26T06:36:05;122.90;;;114.50;;
23432;SDS011;41331;45.412;10.992;2024-02-26T06:38:32;82.05;;;76.20;;
23432;SDS011;41331;45.412;10.992;2024-02-26T06:41:03;66.40;;;61.90;;
23432;SDS011;41331;45.412;10.992;2024-02-26T06:43:31;48.92;;;45.45;;
23432;SDS011;41331;45.412;10.992;2024-02-26T06:45:59;35.35;;;32.28;;
23432;SDS011;41331;45.412;10.992;2024-02-26T06:48:27;42.78;;;39.00;;
23432;SDS011;41331;45.412;10.992;2024-02-26T06:50:55;77.50;;;72.28;;
23432;SDS011;41331;45.412;10.992;2024-02-26T06:53:23;70.22;;;65.30;;
23432;SDS011;41331;45.412;10.992;2024-02-26T06:55:51;80.43;;;75.15;;
23432;SDS011;41331;45.412;10.992;2024-02-26T06:58:19;80.10;;;74.38;;
23432;SDS011;41331;45.412;10.992;2024-02-26T07:00:46;63.15;;;58.83;;
23432;SDS011;41331;45.412;10.992;2024-02-26T07:03:15;63.92;;;59.47;;
23432;SDS011;41331;45.412;10.992;2024-02-26T07:05:43;69.78;;;64.70;;
23432;SDS011;41331;45.412;10.992;2024-02-26T07:08:12;67.22;;;62.58;;
23432;SDS011;41331;45.412;10.992;2024-02-26T07:10:40;62.42;;;57.90;;
23432;SDS011;41331;45.412;10.992;2024-02-26T07:13:11;75.80;;;70.68;;
23432;SDS011;41331;45.412;10.992;2024-02-26T07:15:38;41.72;;;38.63;;
23432;SDS011;41331;45.412;10.992;2024-02-26T07:18:06;34.95;;;32.00;;
23432;SDS011;41331;45.412;10.992;2024-02-26T07:20:34;52.72;;;48.25;;
23432;SDS011;41331;45.412;10.992;2024-02-26T07:23:02;51.97;;;48.17;;
23432;SDS011;41331;45.412;10.992;2024-02-26T07:25:30;64.93;;;60.05;;
23432;SDS011;41331;45.412;10.992;2024-02-26T07:27:58;70.90;;;65.75;;
23432;SDS011;41331;45.412;10.992;2024-02-26T07:30:26;76.88;;;71.32;;
23432;SDS011;41331;45.412;10.992;2024-02-26T07:32:54;53.58;;;49.78;;
23432;SDS011;41331;45.412;10.992;2024-02-26T07:35:22;77.03;;;71.95;;
23432;SDS011;41331;45.412;10.992;2024-02-26T07:37:50;29.55;;;27.10;;
23432;SDS011;41331;45.412;10.992;2024-02-26T07:40:17;24.00;;;21.95;;
23432;SDS011;41331;45.412;10.992;2024-02-26T07:42:46;26.92;;;24.70;;
23432;SDS011;41331;45.412;10.992;2024-02-26T07:45:14;30.00;;;27.27;;
23432;SDS011;41331;45.412;10.992;2024-02-26T07:47:43;23.45;;;20.98;;
23432;SDS011;41331;45.412;10.992;2024-02-26T07:50:11;22.70;;;20.35;;
23432;SDS011;41331;45.412;10.992;2024-02-26T07:52:39;23.27;;;21.10;;
23432;SDS011;41331;45.412;10.992;2024-02-26T07:55:07;22.65;;;20.55;;
23432;SDS011;41331;45.412;10.992;2024-02-26T07:57:35;21.23;;;18.85;;
23432;SDS011;41331;45.412;10.992;2024-02-26T08:00:04;24.95;;;22.55;;
23432;SDS011;41331;45.412;10.992;2024-02-26T08:02:35;26.15;;;23.80;;
23432;SDS011;41331;45.412;10.992;2024-02-26T08:05:03;21.65;;;19.67;;
23432;SDS011;41331;45.412;10.992;2024-02-26T08:07:32;26.88;;;24.70;;
23432;SDS011;41331;45.412;10.992;2024-02-26T08:10:00;26.17;;;24.00;;
23432;SDS011;41331;45.412;10.992;2024-02-26T08:12:27;34.03;;;31.42;;
23432;SDS011;41331;45.412;10.992;2024-02-26T08:14:55;33.75;;;30.70;;
23432;SDS011;41331;45.412;10.992;2024-02-26T08:17:24;36.35;;;32.60;;
23432;SDS011;41331;45.412;10.992;2024-02-26T08:19:51;27.38;;;24.92;;
23432;SDS011;41331;45.412;10.992;2024-02-26T08:22:19;36.78;;;34.03;;
23432;SDS011;41331;45.412;10.992;2024-02-26T08:24:47;29.27;;;26.65;;
23432;SDS011;41331;45.412;10.992;2024-02-26T08:27:15;30.27;;;27.60;;
23432;SDS011;41331;45.412;10.992;2024-02-26T08:29:43;27.60;;;25.35;;
23432;SDS011;41331;45.412;10.992;2024-02-26T08:32:11;33.95;;;31.00;;
23432;SDS011;41331;45.412;10.992;2024-02-26T08:34:38;25.02;;;22.95;;
23432;SDS011;41331;45.412;10.992;2024-02-26T08:37:06;29.42;;;26.67;;
23432;SDS011;41331;45.412;10.992;2024-02-26T08:39:34;24.75;;;22.70;;
23432;SDS011;41331;45.412;10.992;2024-02-26T08:42:02;21.85;;;20.05;;
23432;SDS011;41331;45.412;10.992;2024-02-26T08:44:30;23.25;;;20.98;;
23432;SDS011;41331;45.412;10.992;2024-02-26T08:46:58;30.13;;;27.67;;
23432;SDS011;41331;45.412;10.992;2024-02-26T08:49:26;22.98;;;21.17;;
23432;SDS011;41331;45.412;10.992;2024-02-26T08:51:55;27.05;;;25.00;;
23432;SDS011;41331;45.412;10.992;2024-02-26T08:54:23;14.52;;;13.00;;
23432;SDS011;41331;45.412;10.992;2024-02-26T08:56:51;18.60;;;17.30;;
23432;SDS011;41331;45.412;10.992;2024-02-26T08:59:19;20.23;;;18.65;;
23432;SDS011;41331;45.412;10.992;2024-02-26T09:01:49;20.38;;;18.92;;
23432;SDS011;41331;45.412;10.992;2024-02-26T09:04:17;26.55;;;24.85;;
23432;SDS011;41331;45.412;10.992;2024-02-26T09:06:46;26.65;;;24.58;;
23432;SDS011;41331;45.412;10.992;2024-02-26T09:09:14;20.85;;;19.27;;
23432;SDS011;41331;45.412;10.992;2024-02-26T09:11:42;40.25;;;37.60;;
23432;SDS011;41331;45.412;10.992;2024-02-26T09:14:10;35.00;;;32.53;;
23432;SDS011;41331;45.412;10.992;2024-02-26T09:16:38;30.73;;;28.23;;
23432;SDS011;41331;45.412;10.992;2024-02-26T09:19:06;35.50;;;33.22;;
23432;SDS011;41331;45.412;10.992;2024-02-26T09:21:34;43.63;;;40.63;;
23432;SDS011;41331;45.412;10.992;2024-02-26T09:24:02;35.13;;;32.47;;
23432;SDS011;41331;45.412;10.992;2024-02-26T09:26:33;35.08;;;32.72;;
23432;SDS011;41331;45.412;10.992;2024-02-26T09:29:01;34.08;;;31.77;;
23432;SDS011;41331;45.412;10.992;2024-02-26T09:31:32;38.10;;;35.40;;
23432;SDS011;41331;45.412;10.992;2024-02-26T09:34:01;41.25;;;38.30;;
23432;SDS011;41331;45.412;10.992;2024-02-26T09:36:29;34.80;;;32.15;;
23432;SDS011;41331;45.412;10.992;2024-02-26T09:38:58;42.97;;;40.00;;
23432;SDS011;41331;45.412;10.992;2024-02-26T09:41:28;36.17;;;33.60;;
23432;SDS011;41331;45.412;10.992;2024-02-26T09:43:59;35.38;;;32.80;;
23432;SDS011;41331;45.412;10.992;2024-02-26T09:46:31;39.83;;;36.88;;
23432;SDS011;41331;45.412;10.992;2024-02-26T09:48:59;51.97;;;48.45;;
23432;SDS011;41331;45.412;10.992;2024-02-26T09:51:28;26.50;;;24.30;;
23432;SDS011;41331;45.412;10.992;2024-02-26T09:53:56;26.15;;;24.02;;
23432;SDS011;41331;45.412;10.992;2024-02-26T09:56:29;38.03;;;35.20;;
23432;SDS011;41331;45.412;10.992;2024-02-26T09:59:00;30.02;;;27.90;;
23432;SDS011;41331;45.412;10.992;2024-02-26T10:01:31;30.53;;;28.23;;
23432;SDS011;41331;45.412;10.992;2024-02-26T10:04:01;31.85;;;29.70;;
23432;SDS011;41331;45.412;10.992;2024-02-26T10:06:31;33.03;;;30.67;;
23432;SDS011;41331;45.412;10.992;2024-02-26T10:08:59;28.83;;;26.67;;
23432;SDS011;41331;45.412;10.992;2024-02-26T10:11:27;34.10;;;31.55;;
23432;SDS011;41331;45.412;10.992;2024-02-26T10:13:58;39.15;;;36.40;;
23432;SDS011;41331;45.412;10.992;2024-02-26T10:16:26;25.15;;;23.15;;
23432;SDS011;41331;45.412;10.992;2024-02-26T10:18:54;30.05;;;27.80;;
23432;SDS011;41331;45.412;10.992;2024-02-26T10:23:54;24.65;;;22.80;;
23432;SDS011;41331;45.412;10.992;2024-02-26T10:26:22;37.42;;;34.78;;
23432;SDS011;41331;45.412;10.992;2024-02-26T10:28:50;24.52;;;22.40;;
23432;SDS011;41331;45.412;10.992;2024-02-26T10:31:21;19.55;;;17.98;;
23432;SDS011;41331;45.412;10.992;2024-02-26T10:33:49;16.42;;;14.80;;
23432;SDS011;41331;45.412;10.992;2024-02-26T10:36:22;14.93;;;12.90;;
23432;SDS011;41331;45.412;10.992;2024-02-26T10:39:07;14.00;;;10.85;;
23432;SDS011;41331;45.412;10.992;2024-02-26T10:41:35;12.48;;;11.30;;
23432;SDS011;41331;45.412;10.992;2024-02-26T10:44:05;18.88;;;17.27;;
23432;SDS011;41331;45.412;10.992;2024-02-26T10:46:33;15.52;;;14.10;;
23432;SDS011;41331;45.412;10.992;2024-02-26T10:49:02;22.15;;;20.42;;
23432;SDS011;41331;45.412;10.992;2024-02-26T10:51:30;20.80;;;19.00;;
23432;SDS011;41331;45.412;10.992;2024-02-26T10:53:59;19.98;;;18.42;;
23432;SDS011;41331;45.412;10.992;2024-02-26T10:56:33;31.45;;;28.83;;
23432;SDS011;41331;45.412;10.992;2024-02-26T10:59:01;44.35;;;41.30;;
23432;SDS011;41331;45.412;10.992;2024-02-26T11:01:29;35.25;;;32.78;;
23432;SDS011;41331;45.412;10.992;2024-02-26T11:04:02;34.42;;;31.95;;
23432;SDS011;41331;45.412;10.992;2024-02-26T11:06:31;31.23;;;29.15;;
23432;SDS011;41331;45.412;10.992;2024-02-26T11:09:02;31.65;;;29.50;;
23432;SDS011;41331;45.412;10.992;2024-02-26T11:11:31;28.35;;;26.17;;
23432;SDS011;41331;45.412;10.992;2024-02-26T11:14:03;25.50;;;23.35;;
23432;SDS011;41331;45.412;10.992;2024-02-26T11:16:31;25.42;;;23.55;;
23432;SDS011;41331;45.412;10.992;2024-02-26T11:19:02;22.67;;;20.90;;
23432;SDS011;41331;45.412;10.992;2024-02-26T11:21:31;30.25;;;27.10;;
23432;SDS011;41331;45.412;10.992;2024-02-26T11:24:11;34.20;;;31.92;;
23432;SDS011;41331;45.412;10.992;2024-02-26T11:26:43;30.35;;;28.33;;
23432;SDS011;41331;45.412;10.992;2024-02-26T11:29:17;31.02;;;28.77;;
23432;SDS011;41331;45.412;10.992;2024-02-26T11:31:50;34.17;;;31.58;;
23432;SDS011;41331;45.412;10.992;2024-02-26T11:34:18;35.83;;;33.17;;
23432;SDS011;41331;45.412;10.992;2024-02-26T11:36:46;36.53;;;34.08;;
23432;SDS011;41331;45.412;10.992;2024-02-26T11:39:14;31.00;;;28.88;;
23432;SDS011;41331;45.412;10.992;2024-02-26T11:41:44;25.38;;;23.13;;
23432;SDS011;41331;45.412;10.992;2024-02-26T11:44:12;24.23;;;22.60;;
23432;SDS011;41331;45.412;10.992;2024-02-26T11:46:41;31.42;;;29.17;;
23432;SDS011;41331;45.412;10.992;2024-02-26T11:51:52;37.05;;;34.70;;
23432;SDS011;41331;45.412;10.992;2024-02-26T11:59:55;30.40;;;28.17;;
23432;SDS011;41331;45.412;10.992;2024-02-26T12:05:27;23.67;;;22.00;;
23432;SDS011;41331;45.412;10.992;2024-02-26T12:08:08;32.42;;;30.38;;
23432;SDS011;41331;45.412;10.992;2024-02-26T12:10:36;32.03;;;29.52;;
23432;SDS011;41331;45.412;10.992;2024-02-26T12:13:11;47.45;;;44.45;;
23432;SDS011;41331;45.412;10.992;2024-02-26T12:15:55;42.28;;;39.55;;
23432;SDS011;41331;45.412;10.992;2024-02-26T12:18:24;57.72;;;54.15;;
23432;SDS011;41331;45.412;10.992;2024-02-26T12:20:59;98.65;;;92.53;;
23432;SDS011;41331;45.412;10.992;2024-02-26T12:23:30;102.53;;;95.85;;
23432;SDS011;41331;45.412;10.992;2024-02-26T12:26:01;110.72;;;104.07;;
23432;SDS011;41331;45.412;10.992;2024-02-26T12:28:33;167.63;;;157.13;;
23432;SDS011;41331;45.412;10.992;2024-02-26T12:31:01;122.65;;;114.60;;
23432;SDS011;41331;45.412;10.992;2024-02-26T12:33:29;187.60;;;175.38;;
23432;SDS011;41331;45.412;10.992;2024-02-26T12:35:58;92.57;;;86.88;;
23432;SDS011;41331;45.412;10.992;2024-02-26T12:38:26;91.82;;;85.50;;
23432;SDS011;41331;45.412;10.992;2024-02-26T12:40:55;95.13;;;89.13;;
23432;SDS011;41331;45.412;10.992;2024-02-26T12:43:23;133.55;;;124.82;;
23432;SDS011;41331;45.412;10.992;2024-02-26T12:45:50;193.48;;;180.57;;
23432;SDS011;41331;45.412;10.992;2024-02-26T12:48:18;210.50;;;196.13;;
23432;SDS011;41331;45.412;10.992;2024-02-26T12:50:48;234.48;;;218.65;;
23432;SDS011;41331;45.412;10.992;2024-02-26T12:53:16;161.60;;;151.20;;
23432;SDS011;41331;45.412;10.992;2024-02-26T12:55:44;169.48;;;158.52;;
23432;SDS011;41331;45.412;10.992;2024-02-26T12:58:13;122.45;;;114.75;;
23432;SDS011;41331;45.412;10.992;2024-02-26T13:00:42;114.82;;;107.32;;
23432;SDS011;41331;45.412;10.992;2024-02-26T13:03:10;123.30;;;115.28;;
23432;SDS011;41331;45.412;10.992;2024-02-26T13:05:38;58.13;;;54.28;;
23432;SDS011;41331;45.412;10.992;2024-02-26T13:08:07;42.58;;;39.70;;
23432;SDS011;41331;45.412;10.992;2024-02-26T13:10:36;35.10;;;32.75;;
23432;SDS011;41331;45.412;10.992;2024-02-26T13:13:04;38.35;;;35.90;;
23432;SDS011;41331;45.412;10.992;2024-02-26T13:15:33;35.65;;;33.15;;
23432;SDS011;41331;45.412;10.992;2024-02-26T13:18:08;47.80;;;44.50;;
23432;SDS011;41331;45.412;10.992;2024-02-26T13:20:37;50.20;;;46.42;;
23432;SDS011;41331;45.412;10.992;2024-02-26T13:23:08;69.90;;;65.25;;
23432;SDS011;41331;45.412;10.992;2024-02-26T13:25:39;93.38;;;87.32;;
23432;SDS011;41331;45.412;10.992;2024-02-26T13:28:18;92.28;;;86.55;;
23432;SDS011;41331;45.412;10.992;2024-02-26T13:30:50;110.60;;;103.50;;
23432;SDS011;41331;45.412;10.992;2024-02-26T13:33:21;162.75;;;152.38;;
23432;SDS011;41331;45.412;10.992;2024-02-26T13:35:50;208.00;;;194.15;;
23432;SDS011;41331;45.412;10.992;2024-02-26T13:38:18;185.05;;;172.93;;
23432;SDS011;41331;45.412;10.992;2024-02-26T13:40:46;171.93;;;159.25;;
23432;SDS011;41331;45.412;10.992;2024-02-26T13:43:14;184.60;;;171.90;;
23432;SDS011;41331;45.412;10.992;2024-02-26T13:45:42;268.17;;;248.63;;
23432;SDS011;41331;45.412;10.992;2024-02-26T13:48:11;181.30;;;169.23;;
23432;SDS011;41331;45.412;10.992;2024-02-26T13:50:41;138.68;;;129.38;;
23432;SDS011;41331;45.412;10.992;2024-02-26T13:53:13;141.02;;;131.88;;
23432;SDS011;41331;45.412;10.992;2024-02-26T13:55:42;101.80;;;95.55;;
23432;SDS011;41331;45.412;10.992;2024-02-26T13:58:12;112.97;;;105.80;;
23432;SDS011;41331;45.412;10.992;2024-02-26T14:00:41;88.75;;;83.15;;
23432;SDS011;41331;45.412;10.992;2024-02-26T14:03:10;86.63;;;81.13;;
23432;SDS011;41331;45.412;10.992;2024-02-26T14:05:38;97.53;;;91.03;;
23432;SDS011;41331;45.412;10.992;2024-02-26T14:08:08;139.30;;;129.93;;
23432;SDS011;41331;45.412;10.992;2024-02-26T14:10:36;140.80;;;131.95;;
23432;SDS011;41331;45.412;10.992;2024-02-26T14:13:05;182.68;;;170.23;;
23432;SDS011;41331;45.412;10.992;2024-02-26T14:15:33;205.00;;;190.70;;
23432;SDS011;41331;45.412;10.992;2024-02-26T14:18:03;227.18;;;210.65;;
23432;SDS011;41331;45.412;10.992;2024-02-26T14:20:32;231.52;;;214.90;;